createdAt,value
2019-02-22T00:03:21.584Z,40.33
2019-02-22T00:07:27.020Z,43.20
2019-02-22T00:11:32.697Z,39.40
2019-02-22T00:15:38.164Z,40.10
2019-02-22T00:19:43.587Z,40.17
2019-02-22T00:23:48.949Z,37.67
2019-02-22T00:27:54.389Z,43.63
2019-02-22T00:31:59.831Z,47.23
2019-02-22T00:36:05.165Z,37.83
2019-02-22T00:40:10.608Z,43.90
2019-02-22T00:44:16.018Z,41.33
2019-02-22T00:48:21.382Z,41.30
2019-02-22T00:52:26.911Z,43.37
2019-02-22T00:56:32.339Z,42.90
2019-02-22T01:00:37.794Z,41.43
2019-02-22T01:04:43.229Z,45.30
2019-02-22T01:08:48.637Z,38.37
2019-02-22T01:12:53.979Z,41.10
2019-02-22T01:16:59.517Z,43.83
2019-02-22T01:21:04.849Z,48.17
2019-02-22T01:25:10.233Z,40.53
2019-02-22T01:29:15.656Z,45.47
2019-02-22T01:33:20.986Z,38.13
2019-02-22T01:37:26.407Z,38.73
2019-02-22T01:41:32.070Z,42.70
2019-02-22T01:45:37.650Z,41.77
2019-02-22T01:49:43.065Z,46.87
2019-02-22T01:53:48.515Z,43.77
2019-02-22T01:57:53.986Z,48.60
2019-02-22T02:01:59.328Z,47.77
2019-02-22T02:06:04.762Z,44.93
2019-02-22T02:10:10.550Z,46.63
2019-02-22T02:14:15.886Z,54.53
2019-02-22T02:18:21.418Z,51.40
2019-02-22T02:22:27.167Z,54.93
2019-02-22T02:26:32.619Z,56.40
2019-02-22T02:30:38.368Z,53.70
2019-02-22T02:34:43.590Z,50.47
2019-02-22T02:38:48.950Z,51.53
2019-02-22T02:42:54.388Z,43.97
2019-02-22T02:46:59.812Z,45.13
2019-02-22T02:51:05.171Z,46.07
2019-02-22T02:55:34.319Z,49.37
2019-02-22T02:59:39.934Z,48.50
2019-02-22T03:03:45.366Z,50.30
2019-02-22T03:07:50.664Z,53.70
2019-02-22T03:11:56.075Z,50.27
2019-02-22T03:16:01.478Z,53.10
2019-02-22T03:20:07.274Z,46.50
2019-02-22T03:24:12.990Z,53.07
2019-02-22T03:28:18.410Z,52.40
2019-02-22T03:32:24.110Z,55.10
2019-02-22T03:36:29.884Z,54.70
2019-02-22T03:40:35.836Z,55.40
2019-02-22T03:44:41.196Z,54.40
2019-02-22T03:48:46.822Z,53.20
2019-02-22T03:52:55.324Z,56.43
2019-02-22T03:57:00.791Z,56.67
2019-02-22T04:01:06.223Z,55.40
2019-02-22T04:05:11.667Z,55.93
2019-02-22T04:09:16.895Z,55.53
2019-02-22T04:13:22.312Z,55.13
2019-02-22T04:17:27.738Z,56.50
2019-02-22T04:21:33.435Z,59.23
2019-02-22T04:25:38.695Z,56.33
2019-02-22T04:29:44.178Z,60.40
2019-02-22T04:33:49.525Z,58.33
2019-02-22T04:37:54.987Z,57.30
2019-02-22T04:42:00.296Z,53.93
2019-02-22T04:46:05.824Z,51.47
2019-02-22T04:50:11.256Z,54.27
2019-02-22T04:54:16.600Z,54.83
2019-02-22T04:58:22.413Z,54.77
2019-02-22T05:02:27.915Z,56.57
2019-02-22T05:06:33.378Z,60.17
2019-02-22T05:10:38.741Z,57.97
2019-02-22T05:14:44.228Z,56.03
2019-02-22T05:18:49.957Z,58.03
2019-02-22T05:23:03.789Z,56.90
2019-02-22T05:27:02.884Z,60.57
2019-02-22T05:31:08.654Z,62.43
2019-02-22T05:35:14.089Z,59.17
2019-02-22T05:39:19.693Z,65.87
2019-02-22T05:43:25.149Z,61.97
2019-02-22T05:47:30.602Z,56.47
2019-02-22T05:51:36.047Z,54.07
2019-02-22T05:55:44.087Z,54.53
2019-02-22T05:59:49.431Z,53.63
2019-02-22T06:03:55.056Z,58.13
2019-02-22T06:08:00.527Z,57.67
2019-02-22T06:12:05.950Z,57.43
2019-02-22T06:16:11.490Z,55.57
2019-02-22T06:20:17.225Z,55.53
2019-02-22T06:24:22.737Z,54.50
2019-02-22T06:28:28.221Z,55.27
2019-02-22T06:32:33.594Z,52.43
2019-02-22T06:36:38.828Z,54.07
2019-02-22T06:40:47.215Z,52.90
2019-02-22T06:44:51.741Z,54.60
2019-02-22T06:48:57.464Z,53.93
2019-02-22T06:53:02.889Z,54.33
2019-02-22T06:57:08.344Z,52.60
2019-02-22T07:01:13.963Z,53.57
2019-02-22T07:05:19.726Z,53.80
2019-02-22T07:09:25.469Z,50.90
2019-02-22T07:13:30.772Z,49.60
2019-02-22T07:17:36.225Z,51.00
2019-02-22T07:21:52.142Z,50.10
2019-02-22T07:25:48.819Z,49.67
2019-02-22T07:29:54.339Z,45.93
2019-02-22T07:33:59.960Z,47.37
2019-02-22T07:38:05.612Z,47.73
2019-02-22T07:42:11.155Z,48.47
2019-02-22T07:46:17.053Z,47.17
2019-02-22T07:50:22.505Z,48.70
2019-02-22T07:54:27.938Z,48.57
2019-02-22T07:58:33.491Z,48.80
2019-02-22T08:02:38.944Z,52.23
2019-02-22T08:06:44.290Z,54.80
2019-02-22T08:10:49.687Z,53.10
2019-02-22T08:14:55.241Z,50.13
2019-02-22T08:19:01.939Z,49.10
2019-02-22T08:23:07.746Z,49.70
2019-02-22T08:27:13.441Z,49.33
2019-02-22T08:31:18.880Z,49.47
2019-02-22T08:35:24.347Z,47.20
2019-02-22T08:39:29.877Z,48.20
2019-02-22T08:43:35.284Z,45.10
2019-02-22T08:47:40.707Z,47.20
2019-02-22T08:51:46.171Z,45.73
2019-02-22T08:55:51.799Z,48.20
2019-02-22T08:59:57.265Z,44.93
2019-02-22T09:04:02.775Z,43.77
2019-02-22T09:08:08.227Z,42.70
2019-02-22T09:12:13.707Z,43.63
2019-02-22T09:16:19.173Z,44.33
2019-02-22T09:20:24.883Z,43.70
2019-02-22T09:24:30.311Z,41.83
2019-02-22T09:28:35.758Z,43.00
2019-02-22T09:32:41.391Z,42.73
2019-02-22T09:36:47.227Z,40.33
2019-02-22T09:40:52.910Z,42.60
2019-02-22T09:44:58.780Z,43.90
2019-02-22T09:49:04.296Z,42.83
2019-02-22T09:53:09.783Z,42.70
2019-02-22T09:57:15.346Z,44.37
2019-02-22T10:01:21.186Z,46.70
2019-02-22T10:05:26.628Z,45.03
2019-02-22T10:09:32.646Z,43.73
2019-02-22T10:13:38.117Z,45.03
2019-02-22T10:17:43.687Z,44.53
2019-02-22T10:21:49.171Z,44.13
2019-02-22T10:25:55.031Z,43.20
2019-02-22T10:30:01.330Z,43.60
2019-02-22T10:34:06.863Z,45.67
2019-02-22T10:38:12.340Z,41.73
2019-02-22T10:42:17.704Z,45.47
2019-02-22T10:46:23.256Z,45.10
2019-02-22T10:50:28.733Z,46.20
2019-02-22T10:54:34.205Z,42.47
2019-02-22T10:58:39.593Z,40.43
2019-02-22T11:02:45.285Z,39.43
2019-02-22T11:06:50.827Z,37.17
2019-02-22T11:10:56.328Z,33.90
2019-02-22T11:15:01.701Z,30.90
2019-02-22T11:19:07.234Z,32.13
2019-02-22T11:23:13.022Z,34.37
2019-02-22T11:27:18.380Z,36.57
2019-02-22T11:31:24.144Z,41.70
2019-02-22T11:35:29.509Z,40.20
2019-02-22T11:39:35.021Z,42.50
2019-02-22T11:43:40.306Z,40.37
2019-02-22T11:47:45.670Z,38.87
2019-02-22T11:51:51.022Z,38.10
2019-02-22T11:55:57.103Z,38.70
2019-02-22T12:00:02.496Z,39.77
2019-02-22T12:04:08.239Z,38.63
2019-02-22T12:08:13.700Z,39.77
2019-02-22T12:12:19.111Z,41.33
2019-02-22T12:16:24.527Z,38.63
2019-02-22T12:20:30.316Z,38.67
2019-02-22T12:24:35.749Z,38.07
2019-02-22T12:28:41.029Z,40.27
2019-02-22T12:32:47.149Z,38.37
2019-02-22T12:36:52.352Z,36.47
2019-02-22T12:40:58.237Z,39.43
2019-02-22T12:45:04.029Z,37.77
2019-02-22T12:49:11.007Z,37.97
2019-02-22T12:53:16.570Z,36.57
2019-02-22T12:57:22.312Z,33.10
2019-02-22T13:01:27.779Z,31.80
2019-02-22T13:05:33.582Z,30.67
2019-02-22T13:09:38.901Z,28.97
2019-02-22T13:13:44.246Z,27.70
2019-02-22T13:17:49.669Z,26.77
2019-02-22T13:21:55.135Z,26.25
2019-02-22T13:26:00.470Z,26.52
2019-02-22T13:30:07.053Z,24.07
2019-02-22T13:34:12.468Z,17.13
2019-02-22T13:38:18.231Z,18.48
2019-02-22T13:42:23.941Z,18.80
2019-02-22T13:46:29.411Z,18.37
2019-02-22T13:50:35.103Z,16.62
2019-02-22T13:54:44.131Z,16.45
2019-02-22T13:58:48.364Z,11.65
2019-02-22T14:02:53.722Z,15.72
2019-02-22T14:06:59.233Z,14.80
2019-02-22T14:11:04.596Z,11.20
2019-02-22T14:15:10.073Z,9.60
2019-02-22T14:19:15.427Z,8.45
2019-02-22T14:23:20.896Z,8.30
2019-02-22T14:27:26.688Z,7.80
2019-02-22T14:31:32.175Z,6.95
2019-02-22T14:35:37.602Z,6.57
2019-02-22T14:39:42.928Z,6.75
2019-02-22T14:43:48.373Z,6.10
2019-02-22T14:47:53.772Z,6.55
2019-02-22T14:51:59.231Z,6.50
2019-02-22T14:56:04.656Z,6.15
2019-02-22T15:00:15.540Z,6.22
2019-02-22T15:04:20.866Z,6.15
2019-02-22T15:08:26.663Z,7.80
2019-02-22T15:12:32.025Z,7.28
2019-02-22T15:16:57.310Z,8.23
2019-02-22T15:21:02.742Z,8.68
2019-02-22T15:25:10.236Z,9.15
2019-02-22T15:29:16.032Z,10.72
2019-02-22T15:33:24.312Z,10.78
2019-02-22T15:37:29.701Z,14.27
2019-02-22T15:41:35.141Z,14.95
2019-02-22T15:45:40.590Z,17.25
2019-02-22T15:49:48.503Z,17.07
2019-02-22T15:53:53.422Z,15.60
2019-02-22T15:57:58.870Z,15.68
2019-02-22T16:02:04.227Z,15.83
2019-02-22T16:06:09.707Z,15.48
2019-02-22T16:10:15.569Z,15.67
2019-02-22T16:14:20.975Z,14.33
2019-02-22T16:18:26.338Z,15.30
2019-02-22T16:22:31.794Z,13.98
2019-02-22T16:26:37.003Z,16.77
2019-02-22T16:30:42.514Z,13.87
2019-02-22T16:34:48.015Z,14.67
2019-02-22T16:38:53.539Z,13.33
2019-02-22T16:42:59.232Z,14.87
2019-02-22T16:47:04.592Z,13.97
2019-02-22T16:51:10.072Z,12.87
2019-02-22T16:55:16.175Z,13.43
2019-02-22T16:59:21.713Z,12.33
2019-02-22T17:03:27.313Z,11.83
2019-02-22T17:07:32.662Z,12.13
2019-02-22T17:11:38.008Z,11.83
2019-02-22T17:15:43.998Z,12.20
2019-02-22T17:19:49.607Z,12.27
2019-02-22T17:23:55.008Z,12.67
2019-02-22T17:28:00.575Z,11.50
2019-02-22T17:32:06.021Z,13.27
2019-02-22T17:36:11.370Z,12.57
2019-02-22T17:40:16.699Z,14.27
2019-02-22T17:44:22.206Z,13.37
2019-02-22T17:48:27.568Z,12.50
2019-02-22T17:52:33.111Z,13.30
2019-02-22T17:56:38.841Z,14.13
2019-02-22T18:00:44.195Z,13.00
2019-02-22T18:04:49.808Z,13.73
2019-02-22T18:08:55.561Z,14.13
2019-02-22T18:13:01.198Z,14.07
2019-02-22T18:17:08.713Z,14.07
2019-02-22T18:21:13.750Z,13.70
2019-02-22T18:25:19.232Z,13.27
2019-02-22T18:29:35.088Z,16.47
2019-02-22T18:33:34.160Z,13.43
2019-02-22T18:37:39.909Z,12.83
2019-02-22T18:41:45.256Z,13.00
2019-02-22T18:45:50.538Z,13.33
2019-02-22T18:49:55.950Z,11.77
2019-02-22T18:54:01.235Z,12.13
2019-02-22T18:58:06.557Z,12.03
2019-02-22T19:02:12.340Z,12.60
2019-02-22T19:06:17.732Z,12.13
2019-02-22T19:10:23.300Z,11.87
2019-02-22T19:14:28.606Z,13.47
2019-02-22T19:18:35.899Z,12.37
2019-02-22T19:22:41.969Z,12.80
2019-02-22T19:26:47.451Z,15.20
2019-02-22T19:30:53.270Z,14.23
2019-02-22T19:34:59.078Z,12.70
2019-02-22T19:39:05.460Z,14.13
2019-02-22T19:43:11.281Z,13.97
2019-02-22T19:47:16.768Z,13.47
2019-02-22T19:51:22.073Z,14.37
2019-02-22T19:55:27.624Z,13.57
2019-02-22T19:59:33.620Z,15.10
2019-02-22T20:03:39.128Z,16.07
2019-02-22T20:07:44.701Z,15.10
2019-02-22T20:11:50.066Z,16.43
2019-02-22T20:15:55.800Z,16.40
2019-02-22T20:20:01.371Z,18.00
2019-02-22T20:24:06.802Z,19.97
2019-02-22T20:28:12.979Z,20.50
2019-02-22T20:32:18.186Z,21.83
2019-02-22T20:36:28.349Z,23.70
2019-02-22T20:40:30.746Z,21.80
2019-02-22T20:44:36.211Z,23.47
2019-02-22T20:48:42.343Z,23.60
2019-02-22T20:52:48.066Z,26.73
2019-02-22T20:56:53.471Z,25.93
2019-02-22T21:00:59.005Z,26.20
2019-02-22T21:05:04.444Z,27.40
2019-02-22T21:09:09.927Z,26.90
2019-02-22T21:13:15.306Z,24.37
2019-02-22T21:17:20.810Z,26.27
2019-02-22T21:21:26.268Z,25.17
2019-02-22T21:25:31.802Z,25.77
2019-02-22T21:29:39.186Z,26.47
2019-02-22T21:33:44.865Z,33.37
2019-02-22T21:37:50.598Z,48.73
2019-02-22T21:41:56.394Z,44.83
2019-02-22T21:46:02.184Z,35.10
2019-02-22T21:50:09.749Z,33.77
2019-02-22T21:54:15.265Z,29.63
2019-02-22T21:58:20.948Z,28.70
2019-02-22T22:02:26.461Z,27.67
2019-02-22T22:06:31.841Z,27.27
2019-02-22T22:10:37.233Z,27.47
2019-02-22T22:14:42.780Z,26.73
2019-02-22T22:18:48.499Z,29.23
2019-02-22T22:22:53.853Z,28.10
2019-02-22T22:26:59.353Z,26.00
2019-02-22T22:31:04.857Z,27.43
2019-02-22T22:35:11.343Z,30.13
2019-02-22T22:39:16.782Z,27.97
2019-02-22T22:43:22.243Z,28.67
2019-02-22T22:47:29.467Z,29.43
2019-02-22T22:51:34.835Z,27.40
2019-02-22T22:55:40.875Z,29.20
2019-02-22T22:59:46.683Z,31.23
2019-02-22T23:03:53.308Z,30.13
2019-02-22T23:07:58.741Z,28.73
2019-02-22T23:12:04.861Z,30.13
2019-02-22T23:16:10.312Z,29.60
2019-02-22T23:20:16.063Z,29.00
2019-02-22T23:24:21.745Z,29.83
2019-02-22T23:28:27.288Z,29.53
2019-02-22T23:32:32.833Z,28.47
2019-02-22T23:36:38.491Z,28.37
2019-02-22T23:40:44.001Z,29.70
2019-02-22T23:44:49.725Z,28.17
2019-02-22T23:48:55.456Z,30.00
2019-02-22T23:53:00.906Z,30.90
2019-02-22T23:57:06.845Z,34.33
